SEKLV ESGG-ZZZZ
Flight info
| Callsign | SEKLV |
|---|---|
| Flight time | N/A |
| Altitude | |
| Route | |
| Aircraft | P28A |
Departure
| Time | 2026-05-05 12:37 |
|---|---|
| Airport | Göteborg Landvetter Airport (ESGG) |
Arrival
| Time | N/A |
|---|---|
| Airport | ZZZZ |
| Time | Latitude | Longitude | Altitude | Speed | Heading |
|---|---|---|---|---|---|
| 2026-05-05 12:36 | 57.65786 | 12.27532 | 598 ft | 83 kts | 216° |
| 2026-05-05 12:37 | 57.65276 | 12.27059 | 728 ft | 83 kts | 214° |
| 2026-05-05 12:37 | 57.64938 | 12.26287 | 918 ft | 75 kts | 274° |
| 2026-05-05 12:37 | 57.65278 | 12.25652 | 1091 ft | 86 kts | 341° |
| 2026-05-05 12:37 | 57.65891 | 12.26116 | 1175 ft | 106 kts | 24° |
| 2026-05-05 12:38 | 57.66564 | 12.26719 | 1296 ft | 108 kts | 18° |
| 2026-05-05 12:38 | 57.67252 | 12.27393 | 1392 ft | 116 kts | 21° |
| 2026-05-05 12:38 | 57.67968 | 12.28111 | 1458 ft | 119 kts | 19° |
| 2026-05-05 12:38 | 57.68752 | 12.28601 | 1401 ft | 118 kts | 2° |
| 2026-05-05 12:39 | 57.69226 | 12.29590 | 1338 ft | 119 kts | 114° |
| 2026-05-05 12:39 | 57.68578 | 12.30066 | 922 ft | 96 kts | 201° |
| 2026-05-05 12:39 | 57.68008 | 12.29549 | 702 ft | 89 kts | 214° |
| 2026-05-05 12:39 | 57.67480 | 12.29073 | 537 ft | 78 kts | 219° |
| 2026-05-05 12:40 | 57.67043 | 12.28673 | 517 ft | 62 kts | 209° |
| 2026-05-05 12:40 | 57.66656 | 12.28328 | 539 ft | 69 kts | 219° |
| 2026-05-05 12:40 | 57.66210 | 12.27931 | 719 ft | 73 kts | 220° |
| 2026-05-05 12:40 | 57.65719 | 12.27491 | 876 ft | 84 kts | 216° |
| 2026-05-05 12:41 | 57.65198 | 12.26903 | 1036 ft | 86 kts | 224° |
| 2026-05-05 12:41 | 57.64975 | 12.25931 | 1154 ft | 88 kts | 277° |
| 2026-05-05 12:41 | 57.65296 | 12.25124 | 1171 ft | 92 kts | 343° |
| 2026-05-05 12:41 | 57.65919 | 12.25558 | 1211 ft | 98 kts | 21° |
| 2026-05-05 12:42 | 57.66494 | 12.26132 | 1356 ft | 90 kts | 20° |
| 2026-05-05 12:42 | 57.67060 | 12.26544 | 1505 ft | 86 kts | 5° |
| 2026-05-05 12:42 | 57.67652 | 12.26801 | 1672 ft | 88 kts | 2° |
| 2026-05-05 12:42 | 57.68374 | 12.27088 | 1455 ft | 105 kts | 5° |
| 2026-05-05 12:43 | 57.69062 | 12.27396 | 1455 ft | 102 kts | 7° |
| 2026-05-05 12:43 | 57.69728 | 12.27726 | 1421 ft | 99 kts | 8° |
| 2026-05-05 12:43 | 57.70401 | 12.28076 | 1476 ft | 100 kts | 10° |
| 2026-05-05 12:43 | 57.71021 | 12.28624 | 1450 ft | 98 kts | 21° |
| 2026-05-05 12:44 | 57.71628 | 12.29221 | 1387 ft | 97 kts | 15° |
| 2026-05-05 12:44 | 57.72304 | 12.29470 | 1305 ft | 101 kts | 358° |
| 2026-05-05 12:44 | 57.72961 | 12.29568 | 1367 ft | 93 kts | 349° |
| 2026-05-05 12:44 | 57.73572 | 12.29250 | 1355 ft | 89 kts | 336° |
| 2026-05-05 12:45 | 57.74172 | 12.28838 | 1372 ft | 92 kts | 337° |
| 2026-05-05 12:45 | 57.74753 | 12.28434 | 1342 ft | 90 kts | 334° |
| 2026-05-05 12:45 | 57.75351 | 12.28015 | 1376 ft | 89 kts | 336° |
| 2026-05-05 12:45 | 57.75897 | 12.27479 | 1351 ft | 90 kts | 311° |
| 2026-05-05 12:46 | 57.76051 | 12.26270 | 1226 ft | 108 kts | 276° |
| 2026-05-05 12:46 | 57.76188 | 12.24893 | 1298 ft | 102 kts | 287° |
| 2026-05-05 12:46 | 57.76362 | 12.23597 | 1174 ft | 105 kts | 287° |
| 2026-05-05 12:46 | 57.76594 | 12.22339 | 1168 ft | 100 kts | 292° |
| 2026-05-05 12:47 | 57.76866 | 12.21100 | 1075 ft | 106 kts | 293° |
| 2026-05-05 12:47 | 57.77191 | 12.19895 | 1050 ft | 100 kts | 297° |
| 2026-05-05 12:47 | 57.77390 | 12.18589 | 939 ft | 105 kts | 281° |
| 2026-05-05 12:47 | 57.77348 | 12.17220 | 866 ft | 106 kts | 261° |
| 2026-05-05 12:48 | 57.77137 | 12.15869 | 729 ft | 109 kts | 255° |
| 2026-05-05 12:48 | 57.76876 | 12.14589 | 782 ft | 104 kts | 251° |
| 2026-05-05 12:48 | 57.76556 | 12.13342 | 711 ft | 108 kts | 250° |
| 2026-05-05 12:48 | 57.76244 | 12.12116 | 747 ft | 104 kts | 250° |
| 2026-05-05 12:49 | 57.75959 | 12.10848 | 754 ft | 103 kts | 255° |
| 2026-05-05 12:49 | 57.75843 | 12.09544 | 812 ft | 100 kts | 266° |
| 2026-05-05 12:49 | 57.75764 | 12.08279 | 863 ft | 98 kts | 268° |
| 2026-05-05 12:49 | 57.75707 | 12.06989 | 937 ft | 99 kts | 269° |
| 2026-05-05 12:50 | 57.75668 | 12.05654 | 878 ft | 105 kts | 268° |
| 2026-05-05 12:50 | 57.75654 | 12.04339 | 912 ft | 99 kts | 273° |
| 2026-05-05 12:50 | 57.75642 | 12.03014 | 895 ft | 102 kts | 263° |
| 2026-05-05 12:50 | 57.75524 | 12.01704 | 927 ft | 105 kts | 266° |
| 2026-05-05 12:51 | 57.75481 | 12.00367 | 1015 ft | 99 kts | 270° |
| 2026-05-05 12:51 | 57.75524 | 11.99068 | 968 ft | 102 kts | 279° |
| 2026-05-05 12:51 | 57.75669 | 11.97782 | 988 ft | 99 kts | 269° |
| 2026-05-05 12:51 | 57.75559 | 11.96519 | 977 ft | 97 kts | 268° |
| 2026-05-05 12:52 | 57.75514 | 11.95225 | 969 ft | 101 kts | 270° |
| 2026-05-05 12:52 | 57.75578 | 11.93878 | 944 ft | 103 kts | 278° |
| 2026-05-05 12:52 | 57.75708 | 11.92584 | 947 ft | 102 kts | 284° |
| 2026-05-05 12:52 | 57.75853 | 11.91320 | 968 ft | 99 kts | 281° |
| 2026-05-05 12:53 | 57.75976 | 11.90045 | 874 ft | 100 kts | 278° |
| 2026-05-05 12:53 | 57.75991 | 11.88695 | 807 ft | 104 kts | 269° |
| 2026-05-05 12:53 | 57.76067 | 11.87578 | 548 ft | 84 kts | 292° |
| 2026-05-05 12:53 | 57.76495 | 11.86897 | 182 ft | 86 kts | 341° |
| 2026-05-05 12:54 | 57.77432 | 11.87009 | 53 ft | 55 kts | 11° |
| 2026-05-05 12:54 | 57.77783 | 11.87528 | 186 ft | 78 kts | 59° |
| 2026-05-05 12:54 | 57.77773 | 11.88653 | 311 ft | 93 kts | 104° |
| 2026-05-05 12:55 | 57.77611 | 11.89856 | 511 ft | 93 kts | 109° |
| 2026-05-05 12:55 | 57.77409 | 11.91037 | 647 ft | 99 kts | 115° |
| 2026-05-05 12:55 | 57.77150 | 11.92272 | 782 ft | 102 kts | 111° |
| 2026-05-05 12:55 | 57.76910 | 11.93537 | 928 ft | 107 kts | 115° |
| 2026-05-05 12:56 | 57.76507 | 11.94707 | 1125 ft | 106 kts | 131° |
| 2026-05-05 12:56 | 57.76035 | 11.95814 | 1248 ft | 111 kts | 118° |
| 2026-05-05 12:56 | 57.75853 | 11.97246 | 1340 ft | 116 kts | 92° |
| 2026-05-05 12:56 | 57.75807 | 11.98793 | 1317 ft | 122 kts | 88° |
| 2026-05-05 12:57 | 57.75786 | 12.00331 | 1377 ft | 121 kts | 87° |
| 2026-05-05 12:57 | 57.75768 | 12.01906 | 1438 ft | 121 kts | 89° |
| 2026-05-05 12:57 | 57.75685 | 12.03494 | 1488 ft | 123 kts | 94° |
| 2026-05-05 12:57 | 57.75567 | 12.05092 | 1468 ft | 127 kts | 93° |
| 2026-05-05 12:58 | 57.75420 | 12.06702 | 1543 ft | 120 kts | 100° |
| 2026-05-05 12:58 | 57.75235 | 12.08216 | 1579 ft | 124 kts | 100° |
| 2026-05-05 12:58 | 57.75048 | 12.09808 | 1569 ft | 123 kts | 95° |
| 2026-05-05 12:58 | 57.75020 | 12.11401 | 1569 ft | 118 kts | 81° |
| 2026-05-05 12:59 | 57.75058 | 12.12895 | 1583 ft | 113 kts | 82° |
| 2026-05-05 12:59 | 57.75190 | 12.14303 | 1646 ft | 108 kts | 68° |
| 2026-05-05 12:59 | 57.75466 | 12.15582 | 1779 ft | 107 kts | 55° |
| 2026-05-05 13:00 | 57.76162 | 12.18051 | 2026 ft | 107 kts | 50° |
| 2026-05-05 13:00 | 57.76707 | 12.18857 | 1933 ft | 106 kts | 14° |
| 2026-05-05 13:01 | 57.78821 | 12.20455 | 1013 ft | 86 kts | 346° |
| 2026-05-05 13:01 | 57.79323 | 12.20011 | 839 ft | 68 kts | 308° |
| 2026-05-05 13:01 | 57.79207 | 12.19296 | 730 ft | 76 kts | 209° |
| 2026-05-05 13:01 | 57.78757 | 12.19746 | 693 ft | 84 kts | 113° |
| 2026-05-05 13:02 | 57.78758 | 12.20449 | 623 ft | 82 kts | 63° |
| 2026-05-05 13:02 | 57.79153 | 12.21589 | 659 ft | 76 kts | 36° |
| 2026-05-05 13:02 | 57.79601 | 12.21879 | 771 ft | 60 kts | 331° |
| 2026-05-05 13:02 | 57.79782 | 12.21315 | 848 ft | 54 kts | 257° |
| 2026-05-05 13:03 | 57.79397 | 12.21074 | 950 ft | 74 kts | 158° |
| 2026-05-05 13:03 | 57.79267 | 12.21668 | 1005 ft | 86 kts | 67° |
| 2026-05-05 13:03 | 57.78970 | 12.22660 | 1056 ft | 107 kts | 160° |
| 2026-05-05 13:03 | 57.78009 | 12.23429 | 1098 ft | 115 kts | 165° |
| 2026-05-05 13:04 | 57.77494 | 12.23732 | 1003 ft | 118 kts | 166° |
| 2026-05-05 13:04 | 57.76730 | 12.24313 | 878 ft | 125 kts | 158° |
| 2026-05-05 13:04 | 57.75899 | 12.25149 | 791 ft | 138 kts | 146° |
| 2026-05-05 13:04 | 57.75265 | 12.26479 | 918 ft | 138 kts | 126° |
| 2026-05-05 13:05 | 57.74783 | 12.28033 | 926 ft | 136 kts | 135° |
| 2026-05-05 13:05 | 57.73898 | 12.28519 | 986 ft | 125 kts | 182° |
| 2026-05-05 13:05 | 57.73012 | 12.28401 | 1025 ft | 125 kts | 190° |
| 2026-05-05 13:05 | 57.72130 | 12.28415 | 1073 ft | 131 kts | 182° |
| 2026-05-05 13:06 | 57.71224 | 12.28660 | 1096 ft | 136 kts | 165° |
| 2026-05-05 13:06 | 57.70341 | 12.29311 | 1180 ft | 140 kts | 164° |
| 2026-05-05 13:06 | 57.69412 | 12.29932 | 1082 ft | 138 kts | 171° |
| 2026-05-05 13:06 | 57.68494 | 12.29971 | 824 ft | 128 kts | 198° |
| 2026-05-05 13:07 | 57.67789 | 12.29362 | 616 ft | 86 kts | 215° |
| 2026-05-05 13:07 | 57.67343 | 12.28945 | 511 ft | 60 kts | 205° |
| 2026-05-05 13:07 | 57.67041 | 12.28672 | 516 ft | 40 kts | 207° |
| 2026-05-05 13:07 | 57.66825 | 12.28480 | 510 ft | 29 kts | 207° |
| 2026-05-05 13:08 | 57.66695 | 12.28357 | 512 ft | 16 kts | 191° |
| 2026-05-05 13:08 | 57.66688 | 12.28492 | 510 ft | 15 kts | 53° |
| 2026-05-05 13:08 | 57.66744 | 12.28649 | 509 ft | 14 kts | 56° |
| 2026-05-05 13:08 | 57.66757 | 12.28686 | 509 ft | 0 kts | 58° |